<?xml version="1.0" encoding="UTF-8" standalone="no" ?>
<gpx xmlns="http://www.topografix.com/GPX/1/1" xmlns:xsi="http://www.w3.org/2001/XMLSchema-instance" xsi:schemaLocation="http://www.topografix.com/GPX/1/1 http://www.topografix.com/GPX/1/1/gpx.xsd" version="1.1" creator="VisuGPX - https://www.visugpx.com">
  <metadata>
    <name>Côte de &quot;Le Cruizon&quot; par D49E</name>
  </metadata>
  <trk>
    <name><![CDATA[La Chapelle-de-Guinchay Cyclisme]]></name>
    <extensions>
      <line xmlns="http://www.topografix.com/GPX/gpx_style/0/2">
        <color>0000FF</color>
        <width>4</width>
      </line>
    </extensions>
    <trkseg>
      <trkpt lat="46.04865" lon="4.57787">
        <ele>347.20001220703</ele>
        <time>2021-06-15T14:20:43.000Z</time>
      </trkpt>
      <trkpt lat="46.04856" lon="4.57789">
        <ele>345.60000610352</ele>
        <time>2021-06-15T14:20:45.000Z</time>
      </trkpt>
      <trkpt lat="46.04838" lon="4.578">
        <ele>341.39999389648</ele>
        <time>2021-06-15T14:20:50.000Z</time>
      </trkpt>
      <trkpt lat="46.04834" lon="4.57801">
        <ele>340.79998779297</ele>
        <time>2021-06-15T14:20:51.000Z</time>
      </trkpt>
      <trkpt lat="46.04816" lon="4.57813">
        <ele>339</ele>
        <time>2021-06-15T14:20:57.000Z</time>
      </trkpt>
      <trkpt lat="46.0481" lon="4.57816">
        <ele>339</ele>
        <time>2021-06-15T14:20:59.000Z</time>
      </trkpt>
      <trkpt lat="46.048" lon="4.57821">
        <ele>340</ele>
        <time>2021-06-15T14:21:03.000Z</time>
      </trkpt>
      <trkpt lat="46.04795" lon="4.57821">
        <ele>340.79998779297</ele>
        <time>2021-06-15T14:21:05.000Z</time>
      </trkpt>
      <trkpt lat="46.04791" lon="4.57815">
        <ele>341.39999389648</ele>
        <time>2021-06-15T14:21:07.000Z</time>
      </trkpt>
      <trkpt lat="46.04791" lon="4.57812">
        <ele>341.60000610352</ele>
        <time>2021-06-15T14:21:08.000Z</time>
      </trkpt>
      <trkpt lat="46.04792" lon="4.57808">
        <ele>341.60000610352</ele>
        <time>2021-06-15T14:21:09.000Z</time>
      </trkpt>
      <trkpt lat="46.04794" lon="4.57805">
        <ele>341.39999389648</ele>
        <time>2021-06-15T14:21:10.000Z</time>
      </trkpt>
      <trkpt lat="46.04799" lon="4.57796">
        <ele>341.20001220703</ele>
        <time>2021-06-15T14:21:13.000Z</time>
      </trkpt>
      <trkpt lat="46.048" lon="4.57793">
        <ele>341</ele>
        <time>2021-06-15T14:21:14.000Z</time>
      </trkpt>
      <trkpt lat="46.04802" lon="4.57785">
        <ele>341</ele>
        <time>2021-06-15T14:21:17.000Z</time>
      </trkpt>
      <trkpt lat="46.04806" lon="4.57772">
        <ele>341.20001220703</ele>
        <time>2021-06-15T14:21:21.000Z</time>
      </trkpt>
      <trkpt lat="46.04809" lon="4.57759">
        <ele>341.60000610352</ele>
        <time>2021-06-15T14:21:25.000Z</time>
      </trkpt>
      <trkpt lat="46.0481" lon="4.57748">
        <ele>342.39999389648</ele>
        <time>2021-06-15T14:21:28.000Z</time>
      </trkpt>
      <trkpt lat="46.04811" lon="4.57723">
        <ele>343.79998779297</ele>
        <time>2021-06-15T14:21:35.000Z</time>
      </trkpt>
      <trkpt lat="46.04805" lon="4.57698">
        <ele>345.39999389648</ele>
        <time>2021-06-15T14:21:42.000Z</time>
      </trkpt>
      <trkpt lat="46.04797" lon="4.57677">
        <ele>346.60000610352</ele>
        <time>2021-06-15T14:21:48.000Z</time>
      </trkpt>
      <trkpt lat="46.04793" lon="4.57671">
        <ele>347</ele>
        <time>2021-06-15T14:21:50.000Z</time>
      </trkpt>
      <trkpt lat="46.04791" lon="4.57668">
        <ele>347.20001220703</ele>
        <time>2021-06-15T14:21:51.000Z</time>
      </trkpt>
      <trkpt lat="46.04788" lon="4.57662">
        <ele>347.60000610352</ele>
        <time>2021-06-15T14:21:53.000Z</time>
      </trkpt>
      <trkpt lat="46.04783" lon="4.57655">
        <ele>348.20001220703</ele>
        <time>2021-06-15T14:21:56.000Z</time>
      </trkpt>
      <trkpt lat="46.04778" lon="4.57649">
        <ele>348.79998779297</ele>
        <time>2021-06-15T14:21:59.000Z</time>
      </trkpt>
      <trkpt lat="46.04764" lon="4.5764">
        <ele>350</ele>
        <time>2021-06-15T14:22:06.000Z</time>
      </trkpt>
      <trkpt lat="46.0476" lon="4.57636">
        <ele>350.20001220703</ele>
        <time>2021-06-15T14:22:08.000Z</time>
      </trkpt>
      <trkpt lat="46.04756" lon="4.57634">
        <ele>350.60000610352</ele>
        <time>2021-06-15T14:22:10.000Z</time>
      </trkpt>
      <trkpt lat="46.04746" lon="4.57626">
        <ele>351.60000610352</ele>
        <time>2021-06-15T14:22:16.000Z</time>
      </trkpt>
      <trkpt lat="46.04745" lon="4.57623">
        <ele>351.60000610352</ele>
        <time>2021-06-15T14:22:17.000Z</time>
      </trkpt>
      <trkpt lat="46.04738" lon="4.57615">
        <ele>352</ele>
        <time>2021-06-15T14:22:21.000Z</time>
      </trkpt>
      <trkpt lat="46.04731" lon="4.57604">
        <ele>351.79998779297</ele>
        <time>2021-06-15T14:22:26.000Z</time>
      </trkpt>
      <trkpt lat="46.04729" lon="4.57599">
        <ele>351.79998779297</ele>
        <time>2021-06-15T14:22:28.000Z</time>
      </trkpt>
      <trkpt lat="46.04725" lon="4.57592">
        <ele>351.79998779297</ele>
        <time>2021-06-15T14:22:31.000Z</time>
      </trkpt>
      <trkpt lat="46.04721" lon="4.57585">
        <ele>352.20001220703</ele>
        <time>2021-06-15T14:22:34.000Z</time>
      </trkpt>
      <trkpt lat="46.04716" lon="4.57575">
        <ele>353</ele>
        <time>2021-06-15T14:22:38.000Z</time>
      </trkpt>
      <trkpt lat="46.04713" lon="4.57565">
        <ele>353.39999389648</ele>
        <time>2021-06-15T14:22:42.000Z</time>
      </trkpt>
      <trkpt lat="46.04712" lon="4.5756">
        <ele>353.39999389648</ele>
        <time>2021-06-15T14:22:44.000Z</time>
      </trkpt>
      <trkpt lat="46.04711" lon="4.57557">
        <ele>353.39999389648</ele>
        <time>2021-06-15T14:22:45.000Z</time>
      </trkpt>
      <trkpt lat="46.04706" lon="4.57543">
        <ele>354</ele>
        <time>2021-06-15T14:22:51.000Z</time>
      </trkpt>
      <trkpt lat="46.04706" lon="4.5754">
        <ele>353.79998779297</ele>
        <time>2021-06-15T14:22:52.000Z</time>
      </trkpt>
      <trkpt lat="46.04705" lon="4.57535">
        <ele>353.79998779297</ele>
        <time>2021-06-15T14:22:54.000Z</time>
      </trkpt>
      <trkpt lat="46.047" lon="4.5752">
        <ele>354.20001220703</ele>
        <time>2021-06-15T14:23:00.000Z</time>
      </trkpt>
      <trkpt lat="46.04699" lon="4.57517">
        <ele>354</ele>
        <time>2021-06-15T14:23:01.000Z</time>
      </trkpt>
      <trkpt lat="46.04697" lon="4.57508">
        <ele>354</ele>
        <time>2021-06-15T14:23:04.000Z</time>
      </trkpt>
      <trkpt lat="46.04693" lon="4.57491">
        <ele>354.60000610352</ele>
        <time>2021-06-15T14:23:10.000Z</time>
      </trkpt>
      <trkpt lat="46.04692" lon="4.57489">
        <ele>354.60000610352</ele>
        <time>2021-06-15T14:23:11.000Z</time>
      </trkpt>
      <trkpt lat="46.04689" lon="4.57474">
        <ele>355.20001220703</ele>
        <time>2021-06-15T14:23:16.000Z</time>
      </trkpt>
      <trkpt lat="46.04688" lon="4.57471">
        <ele>355.39999389648</ele>
        <time>2021-06-15T14:23:17.000Z</time>
      </trkpt>
      <trkpt lat="46.0468" lon="4.57446">
        <ele>356.60000610352</ele>
        <time>2021-06-15T14:23:26.000Z</time>
      </trkpt>
      <trkpt lat="46.04677" lon="4.57441">
        <ele>356.79998779297</ele>
        <time>2021-06-15T14:23:28.000Z</time>
      </trkpt>
      <trkpt lat="46.04675" lon="4.57436">
        <ele>357</ele>
        <time>2021-06-15T14:23:30.000Z</time>
      </trkpt>
      <trkpt lat="46.04668" lon="4.57424">
        <ele>357.60000610352</ele>
        <time>2021-06-15T14:23:35.000Z</time>
      </trkpt>
      <trkpt lat="46.04667" lon="4.57422">
        <ele>357.60000610352</ele>
        <time>2021-06-15T14:23:36.000Z</time>
      </trkpt>
      <trkpt lat="46.04658" lon="4.57412">
        <ele>358.79998779297</ele>
        <time>2021-06-15T14:23:41.000Z</time>
      </trkpt>
      <trkpt lat="46.04654" lon="4.57409">
        <ele>359.39999389648</ele>
        <time>2021-06-15T14:23:43.000Z</time>
      </trkpt>
      <trkpt lat="46.04643" lon="4.57402">
        <ele>361.39999389648</ele>
        <time>2021-06-15T14:23:49.000Z</time>
      </trkpt>
      <trkpt lat="46.04641" lon="4.57401">
        <ele>361.79998779297</ele>
        <time>2021-06-15T14:23:50.000Z</time>
      </trkpt>
      <trkpt lat="46.04633" lon="4.57397">
        <ele>363.20001220703</ele>
        <time>2021-06-15T14:23:54.000Z</time>
      </trkpt>
      <trkpt lat="46.04627" lon="4.57397">
        <ele>364.60000610352</ele>
        <time>2021-06-15T14:23:57.000Z</time>
      </trkpt>
      <trkpt lat="46.04623" lon="4.57397">
        <ele>365.60000610352</ele>
        <time>2021-06-15T14:23:59.000Z</time>
      </trkpt>
      <trkpt lat="46.0461" lon="4.57396">
        <ele>368.39999389648</ele>
        <time>2021-06-15T14:24:05.000Z</time>
      </trkpt>
      <trkpt lat="46.04608" lon="4.57396">
        <ele>368.79998779297</ele>
        <time>2021-06-15T14:24:06.000Z</time>
      </trkpt>
      <trkpt lat="46.04592" lon="4.57391">
        <ele>372.20001220703</ele>
        <time>2021-06-15T14:24:13.000Z</time>
      </trkpt>
      <trkpt lat="46.04582" lon="4.57386">
        <ele>374</ele>
        <time>2021-06-15T14:24:18.000Z</time>
      </trkpt>
      <trkpt lat="46.04572" lon="4.57379">
        <ele>375.79998779297</ele>
        <time>2021-06-15T14:24:23.000Z</time>
      </trkpt>
      <trkpt lat="46.04561" lon="4.57368">
        <ele>377.60000610352</ele>
        <time>2021-06-15T14:24:29.000Z</time>
      </trkpt>
      <trkpt lat="46.04556" lon="4.57363">
        <ele>379</ele>
        <time>2021-06-15T14:24:32.000Z</time>
      </trkpt>
      <trkpt lat="46.04544" lon="4.57347">
        <ele>382</ele>
        <time>2021-06-15T14:24:40.000Z</time>
      </trkpt>
      <trkpt lat="46.04534" lon="4.57337">
        <ele>384.39999389648</ele>
        <time>2021-06-15T14:24:46.000Z</time>
      </trkpt>
      <trkpt lat="46.0453" lon="4.57334">
        <ele>385.20001220703</ele>
        <time>2021-06-15T14:24:48.000Z</time>
      </trkpt>
      <trkpt lat="46.04516" lon="4.5732">
        <ele>388.79998779297</ele>
        <time>2021-06-15T14:24:56.000Z</time>
      </trkpt>
      <trkpt lat="46.04506" lon="4.57312">
        <ele>391</ele>
        <time>2021-06-15T14:25:01.000Z</time>
      </trkpt>
      <trkpt lat="46.04498" lon="4.57306">
        <ele>392.60000610352</ele>
        <time>2021-06-15T14:25:05.000Z</time>
      </trkpt>
      <trkpt lat="46.04496" lon="4.57304">
        <ele>393.20001220703</ele>
        <time>2021-06-15T14:25:06.000Z</time>
      </trkpt>
      <trkpt lat="46.04489" lon="4.57298">
        <ele>395</ele>
        <time>2021-06-15T14:25:10.000Z</time>
      </trkpt>
      <trkpt lat="46.04483" lon="4.57294">
        <ele>396.20001220703</ele>
        <time>2021-06-15T14:25:13.000Z</time>
      </trkpt>
      <trkpt lat="46.04481" lon="4.57293">
        <ele>396.60000610352</ele>
        <time>2021-06-15T14:25:14.000Z</time>
      </trkpt>
      <trkpt lat="46.04473" lon="4.57281">
        <ele>399</ele>
        <time>2021-06-15T14:25:19.000Z</time>
      </trkpt>
      <trkpt lat="46.04473" lon="4.57278">
        <ele>399.60000610352</ele>
        <time>2021-06-15T14:25:20.000Z</time>
      </trkpt>
      <trkpt lat="46.04473" lon="4.57271">
        <ele>400.79998779297</ele>
        <time>2021-06-15T14:25:22.000Z</time>
      </trkpt>
      <trkpt lat="46.04475" lon="4.57265">
        <ele>401.79998779297</ele>
        <time>2021-06-15T14:25:24.000Z</time>
      </trkpt>
      <trkpt lat="46.04479" lon="4.57261">
        <ele>402</ele>
        <time>2021-06-15T14:25:26.000Z</time>
      </trkpt>
      <trkpt lat="46.04482" lon="4.57259">
        <ele>401.79998779297</ele>
        <time>2021-06-15T14:25:27.000Z</time>
      </trkpt>
      <trkpt lat="46.04487" lon="4.57257">
        <ele>401.39999389648</ele>
        <time>2021-06-15T14:25:29.000Z</time>
      </trkpt>
      <trkpt lat="46.04498" lon="4.57255">
        <ele>399.60000610352</ele>
        <time>2021-06-15T14:25:33.000Z</time>
      </trkpt>
      <trkpt lat="46.04511" lon="4.57254">
        <ele>397.60000610352</ele>
        <time>2021-06-15T14:25:38.000Z</time>
      </trkpt>
      <trkpt lat="46.04514" lon="4.57253">
        <ele>397.20001220703</ele>
        <time>2021-06-15T14:25:39.000Z</time>
      </trkpt>
      <trkpt lat="46.04524" lon="4.57252">
        <ele>395.60000610352</ele>
        <time>2021-06-15T14:25:43.000Z</time>
      </trkpt>
      <trkpt lat="46.04529" lon="4.57251">
        <ele>394.20001220703</ele>
        <time>2021-06-15T14:25:45.000Z</time>
      </trkpt>
      <trkpt lat="46.04536" lon="4.57248">
        <ele>391.39999389648</ele>
        <time>2021-06-15T14:25:48.000Z</time>
      </trkpt>
      <trkpt lat="46.04543" lon="4.5724">
        <ele>388.60000610352</ele>
        <time>2021-06-15T14:25:52.000Z</time>
      </trkpt>
      <trkpt lat="46.04545" lon="4.57238">
        <ele>388</ele>
        <time>2021-06-15T14:25:53.000Z</time>
      </trkpt>
      <trkpt lat="46.0455" lon="4.57225">
        <ele>386</ele>
        <time>2021-06-15T14:25:58.000Z</time>
      </trkpt>
      <trkpt lat="46.04553" lon="4.57198">
        <ele>384.39999389648</ele>
        <time>2021-06-15T14:26:06.000Z</time>
      </trkpt>
      <trkpt lat="46.0455" lon="4.57174">
        <ele>385.20001220703</ele>
        <time>2021-06-15T14:26:13.000Z</time>
      </trkpt>
      <trkpt lat="46.04548" lon="4.57164">
        <ele>385.79998779297</ele>
        <time>2021-06-15T14:26:16.000Z</time>
      </trkpt>
      <trkpt lat="46.04545" lon="4.57154">
        <ele>386.39999389648</ele>
        <time>2021-06-15T14:26:19.000Z</time>
      </trkpt>
      <trkpt lat="46.04542" lon="4.57138">
        <ele>387.39999389648</ele>
        <time>2021-06-15T14:26:24.000Z</time>
      </trkpt>
      <trkpt lat="46.0454" lon="4.57133">
        <ele>387.79998779297</ele>
        <time>2021-06-15T14:26:26.000Z</time>
      </trkpt>
      <trkpt lat="46.04539" lon="4.5713">
        <ele>388.20001220703</ele>
        <time>2021-06-15T14:26:27.000Z</time>
      </trkpt>
      <trkpt lat="46.04534" lon="4.57117">
        <ele>389.79998779297</ele>
        <time>2021-06-15T14:26:32.000Z</time>
      </trkpt>
      <trkpt lat="46.04534" lon="4.57115">
        <ele>389.79998779297</ele>
        <time>2021-06-15T14:26:33.000Z</time>
      </trkpt>
      <trkpt lat="46.04532" lon="4.5711">
        <ele>390.20001220703</ele>
        <time>2021-06-15T14:26:35.000Z</time>
      </trkpt>
      <trkpt lat="46.04531" lon="4.57107">
        <ele>390.39999389648</ele>
        <time>2021-06-15T14:26:36.000Z</time>
      </trkpt>
      <trkpt lat="46.0453" lon="4.57105">
        <ele>390.60000610352</ele>
        <time>2021-06-15T14:26:37.000Z</time>
      </trkpt>
      <trkpt lat="46.04527" lon="4.57099">
        <ele>391.60000610352</ele>
        <time>2021-06-15T14:26:39.000Z</time>
      </trkpt>
      <trkpt lat="46.04522" lon="4.57088">
        <ele>392.60000610352</ele>
        <time>2021-06-15T14:26:43.000Z</time>
      </trkpt>
      <trkpt lat="46.04519" lon="4.5708">
        <ele>393.20001220703</ele>
        <time>2021-06-15T14:26:46.000Z</time>
      </trkpt>
      <trkpt lat="46.04517" lon="4.57075">
        <ele>393.60000610352</ele>
        <time>2021-06-15T14:26:48.000Z</time>
      </trkpt>
      <trkpt lat="46.04512" lon="4.57065">
        <ele>395.20001220703</ele>
        <time>2021-06-15T14:26:52.000Z</time>
      </trkpt>
      <trkpt lat="46.0451" lon="4.57059">
        <ele>395.39999389648</ele>
        <time>2021-06-15T14:26:54.000Z</time>
      </trkpt>
      <trkpt lat="46.04507" lon="4.57051">
        <ele>396.39999389648</ele>
        <time>2021-06-15T14:26:57.000Z</time>
      </trkpt>
      <trkpt lat="46.04506" lon="4.57048">
        <ele>396.60000610352</ele>
        <time>2021-06-15T14:26:58.000Z</time>
      </trkpt>
      <trkpt lat="46.04505" lon="4.57043">
        <ele>396.79998779297</ele>
        <time>2021-06-15T14:27:00.000Z</time>
      </trkpt>
      <trkpt lat="46.04503" lon="4.57038">
        <ele>397</ele>
        <time>2021-06-15T14:27:02.000Z</time>
      </trkpt>
      <trkpt lat="46.04497" lon="4.57022">
        <ele>397</ele>
        <time>2021-06-15T14:27:08.000Z</time>
      </trkpt>
      <trkpt lat="46.04492" lon="4.57013">
        <ele>397.39999389648</ele>
        <time>2021-06-15T14:27:12.000Z</time>
      </trkpt>
      <trkpt lat="46.04487" lon="4.57004">
        <ele>397.79998779297</ele>
        <time>2021-06-15T14:27:15.000Z</time>
      </trkpt>
      <trkpt lat="46.04483" lon="4.56996">
        <ele>398</ele>
        <time>2021-06-15T14:27:18.000Z</time>
      </trkpt>
      <trkpt lat="46.04478" lon="4.56989">
        <ele>399</ele>
        <time>2021-06-15T14:27:21.000Z</time>
      </trkpt>
      <trkpt lat="46.04476" lon="4.56988">
        <ele>399.39999389648</ele>
        <time>2021-06-15T14:27:22.000Z</time>
      </trkpt>
      <trkpt lat="46.04464" lon="4.56975">
        <ele>400.39999389648</ele>
        <time>2021-06-15T14:27:29.000Z</time>
      </trkpt>
      <trkpt lat="46.04462" lon="4.56973">
        <ele>400.60000610352</ele>
        <time>2021-06-15T14:27:30.000Z</time>
      </trkpt>
      <trkpt lat="46.04454" lon="4.56968">
        <ele>401.60000610352</ele>
        <time>2021-06-15T14:27:34.000Z</time>
      </trkpt>
      <trkpt lat="46.04447" lon="4.56963">
        <ele>402.60000610352</ele>
        <time>2021-06-15T14:27:38.000Z</time>
      </trkpt>
      <trkpt lat="46.04436" lon="4.56956">
        <ele>404.39999389648</ele>
        <time>2021-06-15T14:27:44.000Z</time>
      </trkpt>
      <trkpt lat="46.04432" lon="4.56954">
        <ele>405.20001220703</ele>
        <time>2021-06-15T14:27:46.000Z</time>
      </trkpt>
      <trkpt lat="46.04427" lon="4.56951">
        <ele>406.20001220703</ele>
        <time>2021-06-15T14:27:49.000Z</time>
      </trkpt>
      <trkpt lat="46.04421" lon="4.56948">
        <ele>406.79998779297</ele>
        <time>2021-06-15T14:27:52.000Z</time>
      </trkpt>
      <trkpt lat="46.04416" lon="4.56945">
        <ele>407.60000610352</ele>
        <time>2021-06-15T14:27:55.000Z</time>
      </trkpt>
      <trkpt lat="46.04409" lon="4.56941">
        <ele>408.39999389648</ele>
        <time>2021-06-15T14:27:59.000Z</time>
      </trkpt>
      <trkpt lat="46.04395" lon="4.56934">
        <ele>410.20001220703</ele>
        <time>2021-06-15T14:28:06.000Z</time>
      </trkpt>
      <trkpt lat="46.04393" lon="4.56932">
        <ele>410.39999389648</ele>
        <time>2021-06-15T14:28:07.000Z</time>
      </trkpt>
      <trkpt lat="46.04381" lon="4.56924">
        <ele>411.60000610352</ele>
        <time>2021-06-15T14:28:13.000Z</time>
      </trkpt>
      <trkpt lat="46.0438" lon="4.56923">
        <ele>411.79998779297</ele>
        <time>2021-06-15T14:28:14.000Z</time>
      </trkpt>
      <trkpt lat="46.04367" lon="4.56914">
        <ele>412.79998779297</ele>
        <time>2021-06-15T14:28:21.000Z</time>
      </trkpt>
      <trkpt lat="46.04358" lon="4.56908">
        <ele>414</ele>
        <time>2021-06-15T14:28:26.000Z</time>
      </trkpt>
      <trkpt lat="46.04352" lon="4.56904">
        <ele>414.39999389648</ele>
        <time>2021-06-15T14:28:29.000Z</time>
      </trkpt>
      <trkpt lat="46.04351" lon="4.56902">
        <ele>414.39999389648</ele>
        <time>2021-06-15T14:28:30.000Z</time>
      </trkpt>
      <trkpt lat="46.04339" lon="4.56893">
        <ele>415.39999389648</ele>
        <time>2021-06-15T14:28:37.000Z</time>
      </trkpt>
      <trkpt lat="46.04337" lon="4.56891">
        <ele>415.39999389648</ele>
        <time>2021-06-15T14:28:38.000Z</time>
      </trkpt>
      <trkpt lat="46.04327" lon="4.56882">
        <ele>415.79998779297</ele>
        <time>2021-06-15T14:28:44.000Z</time>
      </trkpt>
      <trkpt lat="46.04325" lon="4.56881">
        <ele>416</ele>
        <time>2021-06-15T14:28:45.000Z</time>
      </trkpt>
      <trkpt lat="46.04308" lon="4.56868">
        <ele>417.20001220703</ele>
        <time>2021-06-15T14:28:55.000Z</time>
      </trkpt>
      <trkpt lat="46.04292" lon="4.56855">
        <ele>417</ele>
        <time>2021-06-15T14:29:04.000Z</time>
      </trkpt>
      <trkpt lat="46.04281" lon="4.56846">
        <ele>417</ele>
        <time>2021-06-15T14:29:10.000Z</time>
      </trkpt>
      <trkpt lat="46.0428" lon="4.56845">
        <ele>417</ele>
        <time>2021-06-15T14:29:11.000Z</time>
      </trkpt>
      <trkpt lat="46.0427" lon="4.56839">
        <ele>417.79998779297</ele>
        <time>2021-06-15T14:29:16.000Z</time>
      </trkpt>
      <trkpt lat="46.04268" lon="4.56838">
        <ele>418</ele>
        <time>2021-06-15T14:29:17.000Z</time>
      </trkpt>
      <trkpt lat="46.04258" lon="4.56837">
        <ele>420</ele>
        <time>2021-06-15T14:29:21.000Z</time>
      </trkpt>
      <trkpt lat="46.04253" lon="4.56838">
        <ele>421.39999389648</ele>
        <time>2021-06-15T14:29:23.000Z</time>
      </trkpt>
      <trkpt lat="46.04249" lon="4.5684">
        <ele>423</ele>
        <time>2021-06-15T14:29:25.000Z</time>
      </trkpt>
      <trkpt lat="46.04237" lon="4.56849">
        <ele>428.79998779297</ele>
        <time>2021-06-15T14:29:31.000Z</time>
      </trkpt>
      <trkpt lat="46.04223" lon="4.56862">
        <ele>436.20001220703</ele>
        <time>2021-06-15T14:29:38.000Z</time>
      </trkpt>
      <trkpt lat="46.04208" lon="4.56872">
        <ele>440</ele>
        <time>2021-06-15T14:29:45.000Z</time>
      </trkpt>
      <trkpt lat="46.04201" lon="4.56872">
        <ele>440.79998779297</ele>
        <time>2021-06-15T14:29:48.000Z</time>
      </trkpt>
      <trkpt lat="46.04197" lon="4.56871">
        <ele>441.20001220703</ele>
        <time>2021-06-15T14:29:50.000Z</time>
      </trkpt>
      <trkpt lat="46.04186" lon="4.56866">
        <ele>441.39999389648</ele>
        <time>2021-06-15T14:29:56.000Z</time>
      </trkpt>
      <trkpt lat="46.04177" lon="4.56858">
        <ele>441.60000610352</ele>
        <time>2021-06-15T14:30:01.000Z</time>
      </trkpt>
      <trkpt lat="46.04168" lon="4.56844">
        <ele>440.79998779297</ele>
        <time>2021-06-15T14:30:07.000Z</time>
      </trkpt>
      <trkpt lat="46.04164" lon="4.56836">
        <ele>440.20001220703</ele>
        <time>2021-06-15T14:30:10.000Z</time>
      </trkpt>
      <trkpt lat="46.04162" lon="4.56828">
        <ele>439.39999389648</ele>
        <time>2021-06-15T14:30:13.000Z</time>
      </trkpt>
      <trkpt lat="46.04162" lon="4.56826">
        <ele>439.20001220703</ele>
        <time>2021-06-15T14:30:14.000Z</time>
      </trkpt>
      <trkpt lat="46.04156" lon="4.56805">
        <ele>437</ele>
        <time>2021-06-15T14:30:21.000Z</time>
      </trkpt>
      <trkpt lat="46.04153" lon="4.56799">
        <ele>436.60000610352</ele>
        <time>2021-06-15T14:30:23.000Z</time>
      </trkpt>
      <trkpt lat="46.04148" lon="4.56793">
        <ele>436.39999389648</ele>
        <time>2021-06-15T14:30:26.000Z</time>
      </trkpt>
      <trkpt lat="46.04146" lon="4.56791">
        <ele>436.39999389648</ele>
        <time>2021-06-15T14:30:27.000Z</time>
      </trkpt>
      <trkpt lat="46.04139" lon="4.56786">
        <ele>436.60000610352</ele>
        <time>2021-06-15T14:30:30.000Z</time>
      </trkpt>
      <trkpt lat="46.04132" lon="4.56782">
        <ele>436.79998779297</ele>
        <time>2021-06-15T14:30:33.000Z</time>
      </trkpt>
      <trkpt lat="46.04127" lon="4.5678">
        <ele>437</ele>
        <time>2021-06-15T14:30:35.000Z</time>
      </trkpt>
      <trkpt lat="46.04124" lon="4.56779">
        <ele>437.20001220703</ele>
        <time>2021-06-15T14:30:36.000Z</time>
      </trkpt>
      <trkpt lat="46.04117" lon="4.56776">
        <ele>437.60000610352</ele>
        <time>2021-06-15T14:30:39.000Z</time>
      </trkpt>
      <trkpt lat="46.0411" lon="4.56775">
        <ele>438.20001220703</ele>
        <time>2021-06-15T14:30:42.000Z</time>
      </trkpt>
      <trkpt lat="46.04105" lon="4.56775">
        <ele>438.79998779297</ele>
        <time>2021-06-15T14:30:44.000Z</time>
      </trkpt>
      <trkpt lat="46.04102" lon="4.56776">
        <ele>439.20001220703</ele>
        <time>2021-06-15T14:30:45.000Z</time>
      </trkpt>
      <trkpt lat="46.04093" lon="4.56777">
        <ele>440.60000610352</ele>
        <time>2021-06-15T14:30:49.000Z</time>
      </trkpt>
      <trkpt lat="46.04086" lon="4.56778">
        <ele>441.60000610352</ele>
        <time>2021-06-15T14:30:52.000Z</time>
      </trkpt>
      <trkpt lat="46.04079" lon="4.56778">
        <ele>442.39999389648</ele>
        <time>2021-06-15T14:30:55.000Z</time>
      </trkpt>
      <trkpt lat="46.04074" lon="4.56779">
        <ele>443.20001220703</ele>
        <time>2021-06-15T14:30:57.000Z</time>
      </trkpt>
      <trkpt lat="46.0407" lon="4.56781">
        <ele>444</ele>
        <time>2021-06-15T14:30:59.000Z</time>
      </trkpt>
      <trkpt lat="46.04069" lon="4.56783">
        <ele>444.60000610352</ele>
        <time>2021-06-15T14:31:00.000Z</time>
      </trkpt>
      <trkpt lat="46.04065" lon="4.56785">
        <ele>445.39999389648</ele>
        <time>2021-06-15T14:31:02.000Z</time>
      </trkpt>
      <trkpt lat="46.04061" lon="4.56789">
        <ele>446.39999389648</ele>
        <time>2021-06-15T14:31:04.000Z</time>
      </trkpt>
      <trkpt lat="46.04058" lon="4.56793">
        <ele>447.60000610352</ele>
        <time>2021-06-15T14:31:06.000Z</time>
      </trkpt>
      <trkpt lat="46.04054" lon="4.56797">
        <ele>448.39999389648</ele>
        <time>2021-06-15T14:31:08.000Z</time>
      </trkpt>
      <trkpt lat="46.04048" lon="4.56803">
        <ele>449.39999389648</ele>
        <time>2021-06-15T14:31:11.000Z</time>
      </trkpt>
      <trkpt lat="46.04042" lon="4.56812">
        <ele>450.79998779297</ele>
        <time>2021-06-15T14:31:15.000Z</time>
      </trkpt>
      <trkpt lat="46.04036" lon="4.56818">
        <ele>451.79998779297</ele>
        <time>2021-06-15T14:31:18.000Z</time>
      </trkpt>
      <trkpt lat="46.0403" lon="4.56825">
        <ele>453</ele>
        <time>2021-06-15T14:31:22.000Z</time>
      </trkpt>
      <trkpt lat="46.04025" lon="4.5683">
        <ele>453.79998779297</ele>
        <time>2021-06-15T14:31:25.000Z</time>
      </trkpt>
      <trkpt lat="46.04019" lon="4.56835">
        <ele>454.79998779297</ele>
        <time>2021-06-15T14:31:28.000Z</time>
      </trkpt>
      <trkpt lat="46.04012" lon="4.56839">
        <ele>455.79998779297</ele>
        <time>2021-06-15T14:31:32.000Z</time>
      </trkpt>
      <trkpt lat="46.04004" lon="4.56843">
        <ele>456.39999389648</ele>
        <time>2021-06-15T14:31:36.000Z</time>
      </trkpt>
      <trkpt lat="46.03995" lon="4.56846">
        <ele>456.79998779297</ele>
        <time>2021-06-15T14:31:40.000Z</time>
      </trkpt>
      <trkpt lat="46.03985" lon="4.56847">
        <ele>457</ele>
        <time>2021-06-15T14:31:45.000Z</time>
      </trkpt>
      <trkpt lat="46.03981" lon="4.56848">
        <ele>457.20001220703</ele>
        <time>2021-06-15T14:31:47.000Z</time>
      </trkpt>
      <trkpt lat="46.03977" lon="4.56849">
        <ele>457.39999389648</ele>
        <time>2021-06-15T14:31:49.000Z</time>
      </trkpt>
      <trkpt lat="46.03968" lon="4.56852">
        <ele>457.79998779297</ele>
        <time>2021-06-15T14:31:54.000Z</time>
      </trkpt>
      <trkpt lat="46.03966" lon="4.56852">
        <ele>458</ele>
        <time>2021-06-15T14:31:55.000Z</time>
      </trkpt>
      <trkpt lat="46.03958" lon="4.56854">
        <ele>458.39999389648</ele>
        <time>2021-06-15T14:31:59.000Z</time>
      </trkpt>
      <trkpt lat="46.03948" lon="4.56858">
        <ele>459.20001220703</ele>
        <time>2021-06-15T14:32:04.000Z</time>
      </trkpt>
      <trkpt lat="46.03946" lon="4.56858">
        <ele>459.20001220703</ele>
        <time>2021-06-15T14:32:05.000Z</time>
      </trkpt>
      <trkpt lat="46.03936" lon="4.56862">
        <ele>460</ele>
        <time>2021-06-15T14:32:10.000Z</time>
      </trkpt>
      <trkpt lat="46.0393" lon="4.56864">
        <ele>460.60000610352</ele>
        <time>2021-06-15T14:32:13.000Z</time>
      </trkpt>
      <trkpt lat="46.03923" lon="4.56867">
        <ele>461.20001220703</ele>
        <time>2021-06-15T14:32:17.000Z</time>
      </trkpt>
      <trkpt lat="46.03917" lon="4.56869">
        <ele>461.60000610352</ele>
        <time>2021-06-15T14:32:20.000Z</time>
      </trkpt>
      <trkpt lat="46.03913" lon="4.56872">
        <ele>462.20001220703</ele>
        <time>2021-06-15T14:32:22.000Z</time>
      </trkpt>
      <trkpt lat="46.03911" lon="4.56873">
        <ele>462.39999389648</ele>
        <time>2021-06-15T14:32:23.000Z</time>
      </trkpt>
      <trkpt lat="46.039" lon="4.56882">
        <ele>464.60000610352</ele>
        <time>2021-06-15T14:32:30.000Z</time>
      </trkpt>
      <trkpt lat="46.03892" lon="4.56888">
        <ele>466</ele>
        <time>2021-06-15T14:32:34.000Z</time>
      </trkpt>
      <trkpt lat="46.03885" lon="4.56895">
        <ele>467.20001220703</ele>
        <time>2021-06-15T14:32:38.000Z</time>
      </trkpt>
      <trkpt lat="46.03879" lon="4.56902">
        <ele>468.39999389648</ele>
        <time>2021-06-15T14:32:42.000Z</time>
      </trkpt>
      <trkpt lat="46.03872" lon="4.56908">
        <ele>469.79998779297</ele>
        <time>2021-06-15T14:32:46.000Z</time>
      </trkpt>
      <trkpt lat="46.03871" lon="4.5691">
        <ele>470</ele>
        <time>2021-06-15T14:32:47.000Z</time>
      </trkpt>
      <trkpt lat="46.03858" lon="4.56923">
        <ele>472.60000610352</ele>
        <time>2021-06-15T14:32:55.000Z</time>
      </trkpt>
      <trkpt lat="46.03845" lon="4.56934">
        <ele>474.60000610352</ele>
        <time>2021-06-15T14:33:02.000Z</time>
      </trkpt>
      <trkpt lat="46.03842" lon="4.56936">
        <ele>475</ele>
        <time>2021-06-15T14:33:04.000Z</time>
      </trkpt>
      <trkpt lat="46.03836" lon="4.5694">
        <ele>475.60000610352</ele>
        <time>2021-06-15T14:33:07.000Z</time>
      </trkpt>
      <trkpt lat="46.03826" lon="4.56944">
        <ele>476.20001220703</ele>
        <time>2021-06-15T14:33:12.000Z</time>
      </trkpt>
      <trkpt lat="46.03824" lon="4.56945">
        <ele>476.20001220703</ele>
        <time>2021-06-15T14:33:13.000Z</time>
      </trkpt>
      <trkpt lat="46.03811" lon="4.56948">
        <ele>476.39999389648</ele>
        <time>2021-06-15T14:33:19.000Z</time>
      </trkpt>
      <trkpt lat="46.03809" lon="4.56949">
        <ele>476.39999389648</ele>
        <time>2021-06-15T14:33:20.000Z</time>
      </trkpt>
      <trkpt lat="46.03793" lon="4.5695">
        <ele>477</ele>
        <time>2021-06-15T14:33:27.000Z</time>
      </trkpt>
      <trkpt lat="46.03789" lon="4.5695">
        <ele>477</ele>
        <time>2021-06-15T14:33:29.000Z</time>
      </trkpt>
      <trkpt lat="46.03785" lon="4.56951">
        <ele>477.20001220703</ele>
        <time>2021-06-15T14:33:31.000Z</time>
      </trkpt>
      <trkpt lat="46.0377" lon="4.56953">
        <ele>478</ele>
        <time>2021-06-15T14:33:38.000Z</time>
      </trkpt>
      <trkpt lat="46.0376" lon="4.56955">
        <ele>478.60000610352</ele>
        <time>2021-06-15T14:33:43.000Z</time>
      </trkpt>
      <trkpt lat="46.03752" lon="4.56957">
        <ele>479</ele>
        <time>2021-06-15T14:33:47.000Z</time>
      </trkpt>
      <trkpt lat="46.03746" lon="4.56959">
        <ele>479.60000610352</ele>
        <time>2021-06-15T14:33:50.000Z</time>
      </trkpt>
      <trkpt lat="46.03736" lon="4.56961">
        <ele>480.20001220703</ele>
        <time>2021-06-15T14:33:55.000Z</time>
      </trkpt>
      <trkpt lat="46.03734" lon="4.56961">
        <ele>480.20001220703</ele>
        <time>2021-06-15T14:33:56.000Z</time>
      </trkpt>
      <trkpt lat="46.0372" lon="4.56964">
        <ele>481.20001220703</ele>
        <time>2021-06-15T14:34:03.000Z</time>
      </trkpt>
      <trkpt lat="46.03716" lon="4.56965">
        <ele>481.60000610352</ele>
        <time>2021-06-15T14:34:05.000Z</time>
      </trkpt>
      <trkpt lat="46.03702" lon="4.56969">
        <ele>483</ele>
        <time>2021-06-15T14:34:12.000Z</time>
      </trkpt>
      <trkpt lat="46.037" lon="4.56969">
        <ele>483</ele>
        <time>2021-06-15T14:34:13.000Z</time>
      </trkpt>
      <trkpt lat="46.03691" lon="4.56971">
        <ele>483.79998779297</ele>
        <time>2021-06-15T14:34:17.000Z</time>
      </trkpt>
      <trkpt lat="46.03686" lon="4.56973">
        <ele>484.39999389648</ele>
        <time>2021-06-15T14:34:19.000Z</time>
      </trkpt>
      <trkpt lat="46.03678" lon="4.56976">
        <ele>485.39999389648</ele>
        <time>2021-06-15T14:34:23.000Z</time>
      </trkpt>
      <trkpt lat="46.03671" lon="4.56977">
        <ele>485.79998779297</ele>
        <time>2021-06-15T14:34:26.000Z</time>
      </trkpt>
      <trkpt lat="46.03667" lon="4.56979">
        <ele>486.39999389648</ele>
        <time>2021-06-15T14:34:28.000Z</time>
      </trkpt>
      <trkpt lat="46.03661" lon="4.5698">
        <ele>487</ele>
        <time>2021-06-15T14:34:31.000Z</time>
      </trkpt>
      <trkpt lat="46.0365" lon="4.56981">
        <ele>487.39999389648</ele>
        <time>2021-06-15T14:34:36.000Z</time>
      </trkpt>
      <trkpt lat="46.03648" lon="4.56981">
        <ele>487.60000610352</ele>
        <time>2021-06-15T14:34:37.000Z</time>
      </trkpt>
      <trkpt lat="46.03633" lon="4.56981">
        <ele>488.79998779297</ele>
        <time>2021-06-15T14:34:44.000Z</time>
      </trkpt>
      <trkpt lat="46.03622" lon="4.56981">
        <ele>489.79998779297</ele>
        <time>2021-06-15T14:34:49.000Z</time>
      </trkpt>
      <trkpt lat="46.03613" lon="4.56981">
        <ele>490.60000610352</ele>
        <time>2021-06-15T14:34:53.000Z</time>
      </trkpt>
      <trkpt lat="46.03609" lon="4.56981">
        <ele>491</ele>
        <time>2021-06-15T14:34:55.000Z</time>
      </trkpt>
      <trkpt lat="46.03598" lon="4.56982">
        <ele>492.20001220703</ele>
        <time>2021-06-15T14:35:00.000Z</time>
      </trkpt>
      <trkpt lat="46.03596" lon="4.56982">
        <ele>492.39999389648</ele>
        <time>2021-06-15T14:35:01.000Z</time>
      </trkpt>
      <trkpt lat="46.03586" lon="4.56982">
        <ele>493.20001220703</ele>
        <time>2021-06-15T14:35:06.000Z</time>
      </trkpt>
      <trkpt lat="46.03582" lon="4.56982">
        <ele>493.60000610352</ele>
        <time>2021-06-15T14:35:08.000Z</time>
      </trkpt>
      <trkpt lat="46.03578" lon="4.56982">
        <ele>494</ele>
        <time>2021-06-15T14:35:10.000Z</time>
      </trkpt>
      <trkpt lat="46.03566" lon="4.56985">
        <ele>495.39999389648</ele>
        <time>2021-06-15T14:35:16.000Z</time>
      </trkpt>
      <trkpt lat="46.03564" lon="4.56985">
        <ele>495.60000610352</ele>
        <time>2021-06-15T14:35:17.000Z</time>
      </trkpt>
      <trkpt lat="46.03553" lon="4.5699">
        <ele>497</ele>
        <time>2021-06-15T14:35:22.000Z</time>
      </trkpt>
      <trkpt lat="46.03544" lon="4.56993">
        <ele>498.20001220703</ele>
        <time>2021-06-15T14:35:26.000Z</time>
      </trkpt>
      <trkpt lat="46.03538" lon="4.56996">
        <ele>499</ele>
        <time>2021-06-15T14:35:29.000Z</time>
      </trkpt>
      <trkpt lat="46.03529" lon="4.57001">
        <ele>500.20001220703</ele>
        <time>2021-06-15T14:35:33.000Z</time>
      </trkpt>
      <trkpt lat="46.03524" lon="4.57003">
        <ele>500.79998779297</ele>
        <time>2021-06-15T14:35:35.000Z</time>
      </trkpt>
      <trkpt lat="46.03509" lon="4.57011">
        <ele>502.39999389648</ele>
        <time>2021-06-15T14:35:42.000Z</time>
      </trkpt>
      <trkpt lat="46.03505" lon="4.57013">
        <ele>502.79998779297</ele>
        <time>2021-06-15T14:35:44.000Z</time>
      </trkpt>
      <trkpt lat="46.035" lon="4.57015">
        <ele>503.20001220703</ele>
        <time>2021-06-15T14:35:46.000Z</time>
      </trkpt>
      <trkpt lat="46.03489" lon="4.57021">
        <ele>504.39999389648</ele>
        <time>2021-06-15T14:35:52.000Z</time>
      </trkpt>
      <trkpt lat="46.03477" lon="4.57028">
        <ele>505.79998779297</ele>
        <time>2021-06-15T14:35:58.000Z</time>
      </trkpt>
      <trkpt lat="46.03474" lon="4.5703">
        <ele>506.60000610352</ele>
        <time>2021-06-15T14:36:00.000Z</time>
      </trkpt>
      <trkpt lat="46.03464" lon="4.57037">
        <ele>508.39999389648</ele>
        <time>2021-06-15T14:36:05.000Z</time>
      </trkpt>
      <trkpt lat="46.03458" lon="4.57041">
        <ele>509.79998779297</ele>
        <time>2021-06-15T14:36:08.000Z</time>
      </trkpt>
      <trkpt lat="46.03455" lon="4.57044">
        <ele>510.60000610352</ele>
        <time>2021-06-15T14:36:10.000Z</time>
      </trkpt>
      <trkpt lat="46.03448" lon="4.57049">
        <ele>512.20001220703</ele>
        <time>2021-06-15T14:36:14.000Z</time>
      </trkpt>
      <trkpt lat="46.03442" lon="4.57054">
        <ele>513.59997558594</ele>
        <time>2021-06-15T14:36:17.000Z</time>
      </trkpt>
      <trkpt lat="46.0344" lon="4.57055">
        <ele>514</ele>
        <time>2021-06-15T14:36:18.000Z</time>
      </trkpt>
      <trkpt lat="46.0343" lon="4.57062">
        <ele>515.79998779297</ele>
        <time>2021-06-15T14:36:23.000Z</time>
      </trkpt>
      <trkpt lat="46.0342" lon="4.57066">
        <ele>517.20001220703</ele>
        <time>2021-06-15T14:36:28.000Z</time>
      </trkpt>
      <trkpt lat="46.03404" lon="4.57067">
        <ele>516.59997558594</ele>
        <time>2021-06-15T14:36:36.000Z</time>
      </trkpt>
      <trkpt lat="46.03396" lon="4.57061">
        <ele>516</ele>
        <time>2021-06-15T14:36:40.000Z</time>
      </trkpt>
      <trkpt lat="46.03394" lon="4.57056">
        <ele>515.79998779297</ele>
        <time>2021-06-15T14:36:42.000Z</time>
      </trkpt>
      <trkpt lat="46.0339" lon="4.57045">
        <ele>516.20001220703</ele>
        <time>2021-06-15T14:36:46.000Z</time>
      </trkpt>
      <trkpt lat="46.03388" lon="4.57037">
        <ele>516.79998779297</ele>
        <time>2021-06-15T14:36:49.000Z</time>
      </trkpt>
      <trkpt lat="46.03383" lon="4.5702">
        <ele>518</ele>
        <time>2021-06-15T14:36:56.000Z</time>
      </trkpt>
      <trkpt lat="46.03377" lon="4.57005">
        <ele>519.20001220703</ele>
        <time>2021-06-15T14:37:03.000Z</time>
      </trkpt>
      <trkpt lat="46.0337" lon="4.56984">
        <ele>520.59997558594</ele>
        <time>2021-06-15T14:37:12.000Z</time>
      </trkpt>
      <trkpt lat="46.03365" lon="4.5697">
        <ele>521.59997558594</ele>
        <time>2021-06-15T14:37:19.000Z</time>
      </trkpt>
      <trkpt lat="46.03359" lon="4.56954">
        <ele>523</ele>
        <time>2021-06-15T14:37:26.000Z</time>
      </trkpt>
      <trkpt lat="46.03351" lon="4.56934">
        <ele>526.20001220703</ele>
        <time>2021-06-15T14:37:34.000Z</time>
      </trkpt>
      <trkpt lat="46.03349" lon="4.56928">
        <ele>526.79998779297</ele>
        <time>2021-06-15T14:37:37.000Z</time>
      </trkpt>
      <trkpt lat="46.03347" lon="4.56919">
        <ele>528</ele>
        <time>2021-06-15T14:37:41.000Z</time>
      </trkpt>
      <trkpt lat="46.03346" lon="4.56916">
        <ele>528.20001220703</ele>
        <time>2021-06-15T14:37:42.000Z</time>
      </trkpt>
      <trkpt lat="46.03342" lon="4.56905">
        <ele>530.20001220703</ele>
        <time>2021-06-15T14:37:47.000Z</time>
      </trkpt>
      <trkpt lat="46.03335" lon="4.56887">
        <ele>533.40002441406</ele>
        <time>2021-06-15T14:37:54.000Z</time>
      </trkpt>
      <trkpt lat="46.03331" lon="4.56868">
        <ele>536</ele>
        <time>2021-06-15T14:38:01.000Z</time>
      </trkpt>
      <trkpt lat="46.0333" lon="4.56865">
        <ele>536.20001220703</ele>
        <time>2021-06-15T14:38:02.000Z</time>
      </trkpt>
      <trkpt lat="46.03325" lon="4.56853">
        <ele>536.59997558594</ele>
        <time>2021-06-15T14:38:06.000Z</time>
      </trkpt>
      <trkpt lat="46.03323" lon="4.56842">
        <ele>536.79998779297</ele>
        <time>2021-06-15T14:38:10.000Z</time>
      </trkpt>
      <trkpt lat="46.0332" lon="4.56833">
        <ele>536.79998779297</ele>
        <time>2021-06-15T14:38:13.000Z</time>
      </trkpt>
      <trkpt lat="46.03316" lon="4.56816">
        <ele>537</ele>
        <time>2021-06-15T14:38:19.000Z</time>
      </trkpt>
      <trkpt lat="46.03313" lon="4.56806">
        <ele>537.40002441406</ele>
        <time>2021-06-15T14:38:23.000Z</time>
      </trkpt>
      <trkpt lat="46.0331" lon="4.56798">
        <ele>537.79998779297</ele>
        <time>2021-06-15T14:38:26.000Z</time>
      </trkpt>
      <trkpt lat="46.03309" lon="4.56795">
        <ele>537.79998779297</ele>
        <time>2021-06-15T14:38:27.000Z</time>
      </trkpt>
      <trkpt lat="46.03303" lon="4.56783">
        <ele>538.40002441406</ele>
        <time>2021-06-15T14:38:32.000Z</time>
      </trkpt>
      <trkpt lat="46.03301" lon="4.56778">
        <ele>538.20001220703</ele>
        <time>2021-06-15T14:38:34.000Z</time>
      </trkpt>
      <trkpt lat="46.03291" lon="4.56762">
        <ele>538.20001220703</ele>
        <time>2021-06-15T14:38:41.000Z</time>
      </trkpt>
      <trkpt lat="46.03279" lon="4.56748">
        <ele>539</ele>
        <time>2021-06-15T14:38:48.000Z</time>
      </trkpt>
      <trkpt lat="46.03269" lon="4.56737">
        <ele>540</ele>
        <time>2021-06-15T14:38:54.000Z</time>
      </trkpt>
      <trkpt lat="46.03267" lon="4.56736">
        <ele>540.20001220703</ele>
        <time>2021-06-15T14:38:55.000Z</time>
      </trkpt>
      <trkpt lat="46.03254" lon="4.56721">
        <ele>541.59997558594</ele>
        <time>2021-06-15T14:39:03.000Z</time>
      </trkpt>
      <trkpt lat="46.0325" lon="4.56718">
        <ele>542</ele>
        <time>2021-06-15T14:39:05.000Z</time>
      </trkpt>
      <trkpt lat="46.03239" lon="4.56707">
        <ele>543.40002441406</ele>
        <time>2021-06-15T14:39:12.000Z</time>
      </trkpt>
      <trkpt lat="46.03234" lon="4.56703">
        <ele>543.79998779297</ele>
        <time>2021-06-15T14:39:15.000Z</time>
      </trkpt>
      <trkpt lat="46.03226" lon="4.56695">
        <ele>545.59997558594</ele>
        <time>2021-06-15T14:39:20.000Z</time>
      </trkpt>
      <trkpt lat="46.03216" lon="4.56686">
        <ele>546.40002441406</ele>
        <time>2021-06-15T14:39:26.000Z</time>
      </trkpt>
      <trkpt lat="46.03213" lon="4.56683">
        <ele>546.79998779297</ele>
        <time>2021-06-15T14:39:28.000Z</time>
      </trkpt>
      <trkpt lat="46.03208" lon="4.56679">
        <ele>547.40002441406</ele>
        <time>2021-06-15T14:39:31.000Z</time>
      </trkpt>
      <trkpt lat="46.03203" lon="4.56673">
        <ele>547.79998779297</ele>
        <time>2021-06-15T14:39:34.000Z</time>
      </trkpt>
      <trkpt lat="46.03198" lon="4.56668">
        <ele>548.20001220703</ele>
        <time>2021-06-15T14:39:37.000Z</time>
      </trkpt>
      <trkpt lat="46.03196" lon="4.56666">
        <ele>548.40002441406</ele>
        <time>2021-06-15T14:39:38.000Z</time>
      </trkpt>
      <trkpt lat="46.03188" lon="4.5666">
        <ele>549.40002441406</ele>
        <time>2021-06-15T14:39:42.000Z</time>
      </trkpt>
      <trkpt lat="46.03182" lon="4.56656">
        <ele>550</ele>
        <time>2021-06-15T14:39:45.000Z</time>
      </trkpt>
      <trkpt lat="46.0318" lon="4.56655">
        <ele>550.40002441406</ele>
        <time>2021-06-15T14:39:46.000Z</time>
      </trkpt>
      <trkpt lat="46.0317" lon="4.56651">
        <ele>552.20001220703</ele>
        <time>2021-06-15T14:39:51.000Z</time>
      </trkpt>
      <trkpt lat="46.03166" lon="4.56649">
        <ele>553</ele>
        <time>2021-06-15T14:39:53.000Z</time>
      </trkpt>
      <trkpt lat="46.03154" lon="4.56645">
        <ele>556</ele>
        <time>2021-06-15T14:40:00.000Z</time>
      </trkpt>
      <trkpt lat="46.0314" lon="4.56642">
        <ele>558.59997558594</ele>
        <time>2021-06-15T14:40:07.000Z</time>
      </trkpt>
      <trkpt lat="46.03134" lon="4.56639">
        <ele>558.40002441406</ele>
        <time>2021-06-15T14:40:09.000Z</time>
      </trkpt>
      <trkpt lat="46.03125" lon="4.56637">
        <ele>558</ele>
        <time>2021-06-15T14:40:13.000Z</time>
      </trkpt>
      <trkpt lat="46.03111" lon="4.56635">
        <ele>558</ele>
        <time>2021-06-15T14:40:19.000Z</time>
      </trkpt>
      <trkpt lat="46.03097" lon="4.56635">
        <ele>558.40002441406</ele>
        <time>2021-06-15T14:40:25.000Z</time>
      </trkpt>
      <trkpt lat="46.03086" lon="4.56636">
        <ele>558.79998779297</ele>
        <time>2021-06-15T14:40:30.000Z</time>
      </trkpt>
      <trkpt lat="46.03081" lon="4.56636">
        <ele>559</ele>
        <time>2021-06-15T14:40:32.000Z</time>
      </trkpt>
      <trkpt lat="46.03062" lon="4.56639">
        <ele>562.40002441406</ele>
        <time>2021-06-15T14:40:40.000Z</time>
      </trkpt>
      <trkpt lat="46.03047" lon="4.56642">
        <ele>564.40002441406</ele>
        <time>2021-06-15T14:40:47.000Z</time>
      </trkpt>
      <trkpt lat="46.03042" lon="4.56643">
        <ele>565</ele>
        <time>2021-06-15T14:40:50.000Z</time>
      </trkpt>
      <trkpt lat="46.03035" lon="4.56645">
        <ele>566</ele>
        <time>2021-06-15T14:40:53.000Z</time>
      </trkpt>
      <trkpt lat="46.03027" lon="4.56648">
        <ele>567.20001220703</ele>
        <time>2021-06-15T14:40:57.000Z</time>
      </trkpt>
      <trkpt lat="46.03026" lon="4.56648">
        <ele>567.59997558594</ele>
        <time>2021-06-15T14:40:58.000Z</time>
      </trkpt>
      <trkpt lat="46.03024" lon="4.56649">
        <ele>567.79998779297</ele>
        <time>2021-06-15T14:40:59.000Z</time>
      </trkpt>
      <trkpt lat="46.03017" lon="4.56652">
        <ele>569</ele>
        <time>2021-06-15T14:41:02.000Z</time>
      </trkpt>
      <trkpt lat="46.03014" lon="4.56653">
        <ele>569.40002441406</ele>
        <time>2021-06-15T14:41:03.000Z</time>
      </trkpt>
      <trkpt lat="46.03012" lon="4.56654">
        <ele>570</ele>
        <time>2021-06-15T14:41:04.000Z</time>
      </trkpt>
      <trkpt lat="46.02997" lon="4.56657">
        <ele>571.79998779297</ele>
        <time>2021-06-15T14:41:11.000Z</time>
      </trkpt>
      <trkpt lat="46.0298" lon="4.56662">
        <ele>574</ele>
        <time>2021-06-15T14:41:20.000Z</time>
      </trkpt>
      <trkpt lat="46.02976" lon="4.56663">
        <ele>574.40002441406</ele>
        <time>2021-06-15T14:41:22.000Z</time>
      </trkpt>
      <trkpt lat="46.02968" lon="4.56664">
        <ele>574.79998779297</ele>
        <time>2021-06-15T14:41:26.000Z</time>
      </trkpt>
      <trkpt lat="46.02963" lon="4.56665">
        <ele>575</ele>
        <time>2021-06-15T14:41:28.000Z</time>
      </trkpt>
      <trkpt lat="46.02953" lon="4.56666">
        <ele>575.40002441406</ele>
        <time>2021-06-15T14:41:32.000Z</time>
      </trkpt>
      <trkpt lat="46.02949" lon="4.56666">
        <ele>575.40002441406</ele>
        <time>2021-06-15T14:41:34.000Z</time>
      </trkpt>
      <trkpt lat="46.02936" lon="4.5667">
        <ele>576</ele>
        <time>2021-06-15T14:41:39.000Z</time>
      </trkpt>
      <trkpt lat="46.02932" lon="4.56672">
        <ele>576.59997558594</ele>
        <time>2021-06-15T14:41:41.000Z</time>
      </trkpt>
      <trkpt lat="46.02917" lon="4.56678">
        <ele>577.59997558594</ele>
        <time>2021-06-15T14:41:48.000Z</time>
      </trkpt>
      <trkpt lat="46.02896" lon="4.56685">
        <ele>578.59997558594</ele>
        <time>2021-06-15T14:41:57.000Z</time>
      </trkpt>
      <trkpt lat="46.02889" lon="4.56688">
        <ele>579.20001220703</ele>
        <time>2021-06-15T14:42:00.000Z</time>
      </trkpt>
      <trkpt lat="46.02881" lon="4.56689">
        <ele>579.59997558594</ele>
        <time>2021-06-15T14:42:04.000Z</time>
      </trkpt>
      <trkpt lat="46.02864" lon="4.56693">
        <ele>580.40002441406</ele>
        <time>2021-06-15T14:42:12.000Z</time>
      </trkpt>
      <trkpt lat="46.02853" lon="4.56694">
        <ele>580.59997558594</ele>
        <time>2021-06-15T14:42:17.000Z</time>
      </trkpt>
      <trkpt lat="46.02848" lon="4.56696">
        <ele>581</ele>
        <time>2021-06-15T14:42:19.000Z</time>
      </trkpt>
      <trkpt lat="46.02842" lon="4.56698">
        <ele>581.40002441406</ele>
        <time>2021-06-15T14:42:22.000Z</time>
      </trkpt>
      <trkpt lat="46.02832" lon="4.567">
        <ele>582</ele>
        <time>2021-06-15T14:42:26.000Z</time>
      </trkpt>
      <trkpt lat="46.02828" lon="4.56701">
        <ele>582.20001220703</ele>
        <time>2021-06-15T14:42:28.000Z</time>
      </trkpt>
      <trkpt lat="46.02815" lon="4.56705">
        <ele>583.20001220703</ele>
        <time>2021-06-15T14:42:34.000Z</time>
      </trkpt>
      <trkpt lat="46.02813" lon="4.56705">
        <ele>583.20001220703</ele>
        <time>2021-06-15T14:42:35.000Z</time>
      </trkpt>
      <trkpt lat="46.02801" lon="4.56707">
        <ele>585.20001220703</ele>
        <time>2021-06-15T14:42:40.000Z</time>
      </trkpt>
      <trkpt lat="46.02785" lon="4.56708">
        <ele>587.79998779297</ele>
        <time>2021-06-15T14:42:46.000Z</time>
      </trkpt>
      <trkpt lat="46.0278" lon="4.56708">
        <ele>588.40002441406</ele>
        <time>2021-06-15T14:42:48.000Z</time>
      </trkpt>
      <trkpt lat="46.02767" lon="4.56703">
        <ele>588.59997558594</ele>
        <time>2021-06-15T14:42:53.000Z</time>
      </trkpt>
      <trkpt lat="46.02761" lon="4.56697">
        <ele>588.20001220703</ele>
        <time>2021-06-15T14:42:56.000Z</time>
      </trkpt>
      <trkpt lat="46.02756" lon="4.56693">
        <ele>588</ele>
        <time>2021-06-15T14:42:58.000Z</time>
      </trkpt>
      <trkpt lat="46.02751" lon="4.56687">
        <ele>587.79998779297</ele>
        <time>2021-06-15T14:43:01.000Z</time>
      </trkpt>
      <trkpt lat="46.02745" lon="4.56681">
        <ele>587.59997558594</ele>
        <time>2021-06-15T14:43:04.000Z</time>
      </trkpt>
      <trkpt lat="46.02741" lon="4.56677">
        <ele>587.40002441406</ele>
        <time>2021-06-15T14:43:06.000Z</time>
      </trkpt>
      <trkpt lat="46.02734" lon="4.56671">
        <ele>587.40002441406</ele>
        <time>2021-06-15T14:43:10.000Z</time>
      </trkpt>
      <trkpt lat="46.02731" lon="4.56669">
        <ele>587.40002441406</ele>
        <time>2021-06-15T14:43:11.000Z</time>
      </trkpt>
      <trkpt lat="46.02727" lon="4.56665">
        <ele>587.40002441406</ele>
        <time>2021-06-15T14:43:13.000Z</time>
      </trkpt>
      <trkpt lat="46.02722" lon="4.56662">
        <ele>588</ele>
        <time>2021-06-15T14:43:15.000Z</time>
      </trkpt>
      <trkpt lat="46.02717" lon="4.56659">
        <ele>589.20001220703</ele>
        <time>2021-06-15T14:43:17.000Z</time>
      </trkpt>
      <trkpt lat="46.02712" lon="4.56657">
        <ele>590.40002441406</ele>
        <time>2021-06-15T14:43:19.000Z</time>
      </trkpt>
      <trkpt lat="46.02707" lon="4.56655">
        <ele>591.59997558594</ele>
        <time>2021-06-15T14:43:21.000Z</time>
      </trkpt>
      <trkpt lat="46.027" lon="4.56652">
        <ele>593.40002441406</ele>
        <time>2021-06-15T14:43:24.000Z</time>
      </trkpt>
      <trkpt lat="46.02693" lon="4.5665">
        <ele>595.40002441406</ele>
        <time>2021-06-15T14:43:27.000Z</time>
      </trkpt>
      <trkpt lat="46.02686" lon="4.56647">
        <ele>597</ele>
        <time>2021-06-15T14:43:30.000Z</time>
      </trkpt>
      <trkpt lat="46.02678" lon="4.56644">
        <ele>599</ele>
        <time>2021-06-15T14:43:34.000Z</time>
      </trkpt>
      <trkpt lat="46.02672" lon="4.56637">
        <ele>599.79998779297</ele>
        <time>2021-06-15T14:43:38.000Z</time>
      </trkpt>
      <trkpt lat="46.02669" lon="4.56632">
        <ele>600</ele>
        <time>2021-06-15T14:43:41.000Z</time>
      </trkpt>
      <trkpt lat="46.02667" lon="4.56627">
        <ele>599.59997558594</ele>
        <time>2021-06-15T14:43:43.000Z</time>
      </trkpt>
      <trkpt lat="46.02665" lon="4.56613">
        <ele>598</ele>
        <time>2021-06-15T14:43:48.000Z</time>
      </trkpt>
      <trkpt lat="46.02665" lon="4.56607">
        <ele>597.40002441406</ele>
        <time>2021-06-15T14:43:50.000Z</time>
      </trkpt>
      <trkpt lat="46.02663" lon="4.56598">
        <ele>596.59997558594</ele>
        <time>2021-06-15T14:43:53.000Z</time>
      </trkpt>
      <trkpt lat="46.02663" lon="4.56595">
        <ele>596.40002441406</ele>
        <time>2021-06-15T14:43:54.000Z</time>
      </trkpt>
      <trkpt lat="46.02662" lon="4.56586">
        <ele>595.40002441406</ele>
        <time>2021-06-15T14:43:57.000Z</time>
      </trkpt>
      <trkpt lat="46.02661" lon="4.56577">
        <ele>594.59997558594</ele>
        <time>2021-06-15T14:44:00.000Z</time>
      </trkpt>
      <trkpt lat="46.02657" lon="4.56566">
        <ele>594.20001220703</ele>
        <time>2021-06-15T14:44:04.000Z</time>
      </trkpt>
      <trkpt lat="46.02654" lon="4.56558">
        <ele>594.20001220703</ele>
        <time>2021-06-15T14:44:07.000Z</time>
      </trkpt>
      <trkpt lat="46.02652" lon="4.56554">
        <ele>594.40002441406</ele>
        <time>2021-06-15T14:44:09.000Z</time>
      </trkpt>
      <trkpt lat="46.02647" lon="4.56544">
        <ele>594.59997558594</ele>
        <time>2021-06-15T14:44:13.000Z</time>
      </trkpt>
      <trkpt lat="46.02644" lon="4.56538">
        <ele>594.79998779297</ele>
        <time>2021-06-15T14:44:15.000Z</time>
      </trkpt>
      <trkpt lat="46.02641" lon="4.56535">
        <ele>595.40002441406</ele>
        <time>2021-06-15T14:44:17.000Z</time>
      </trkpt>
      <trkpt lat="46.02635" lon="4.56526">
        <ele>596</ele>
        <time>2021-06-15T14:44:21.000Z</time>
      </trkpt>
      <trkpt lat="46.02632" lon="4.56522">
        <ele>596.40002441406</ele>
        <time>2021-06-15T14:44:23.000Z</time>
      </trkpt>
      <trkpt lat="46.02627" lon="4.56516">
        <ele>597.20001220703</ele>
        <time>2021-06-15T14:44:26.000Z</time>
      </trkpt>
      <trkpt lat="46.02623" lon="4.56512">
        <ele>597.79998779297</ele>
        <time>2021-06-15T14:44:28.000Z</time>
      </trkpt>
      <trkpt lat="46.02615" lon="4.56502">
        <ele>598.79998779297</ele>
        <time>2021-06-15T14:44:33.000Z</time>
      </trkpt>
      <trkpt lat="46.02609" lon="4.56496">
        <ele>599.59997558594</ele>
        <time>2021-06-15T14:44:36.000Z</time>
      </trkpt>
      <trkpt lat="46.02607" lon="4.56495">
        <ele>600</ele>
        <time>2021-06-15T14:44:37.000Z</time>
      </trkpt>
      <trkpt lat="46.02594" lon="4.56482">
        <ele>602.20001220703</ele>
        <time>2021-06-15T14:44:44.000Z</time>
      </trkpt>
      <trkpt lat="46.02587" lon="4.56472">
        <ele>602.79998779297</ele>
        <time>2021-06-15T14:44:48.000Z</time>
      </trkpt>
      <trkpt lat="46.02581" lon="4.56461">
        <ele>603.20001220703</ele>
        <time>2021-06-15T14:44:52.000Z</time>
      </trkpt>
      <trkpt lat="46.02577" lon="4.56453">
        <ele>603.40002441406</ele>
        <time>2021-06-15T14:44:55.000Z</time>
      </trkpt>
      <trkpt lat="46.02573" lon="4.56439">
        <ele>604</ele>
        <time>2021-06-15T14:45:00.000Z</time>
      </trkpt>
      <trkpt lat="46.0257" lon="4.56429">
        <ele>604.20001220703</ele>
        <time>2021-06-15T14:45:04.000Z</time>
      </trkpt>
      <trkpt lat="46.02568" lon="4.56421">
        <ele>604.40002441406</ele>
        <time>2021-06-15T14:45:07.000Z</time>
      </trkpt>
      <trkpt lat="46.02568" lon="4.56418">
        <ele>604.40002441406</ele>
        <time>2021-06-15T14:45:08.000Z</time>
      </trkpt>
      <trkpt lat="46.02566" lon="4.56413">
        <ele>604.59997558594</ele>
        <time>2021-06-15T14:45:10.000Z</time>
      </trkpt>
      <trkpt lat="46.02564" lon="4.56403">
        <ele>604.79998779297</ele>
        <time>2021-06-15T14:45:14.000Z</time>
      </trkpt>
      <trkpt lat="46.02563" lon="4.56398">
        <ele>605</ele>
        <time>2021-06-15T14:45:16.000Z</time>
      </trkpt>
      <trkpt lat="46.02562" lon="4.56393">
        <ele>605.20001220703</ele>
        <time>2021-06-15T14:45:18.000Z</time>
      </trkpt>
      <trkpt lat="46.02559" lon="4.56382">
        <ele>605.40002441406</ele>
        <time>2021-06-15T14:45:22.000Z</time>
      </trkpt>
      <trkpt lat="46.02556" lon="4.56372">
        <ele>605.79998779297</ele>
        <time>2021-06-15T14:45:26.000Z</time>
      </trkpt>
      <trkpt lat="46.02556" lon="4.5637">
        <ele>605.79998779297</ele>
        <time>2021-06-15T14:45:27.000Z</time>
      </trkpt>
      <trkpt lat="46.02552" lon="4.56359">
        <ele>606.40002441406</ele>
        <time>2021-06-15T14:45:31.000Z</time>
      </trkpt>
      <trkpt lat="46.0255" lon="4.56353">
        <ele>606.59997558594</ele>
        <time>2021-06-15T14:45:33.000Z</time>
      </trkpt>
      <trkpt lat="46.0255" lon="4.5635">
        <ele>606.79998779297</ele>
        <time>2021-06-15T14:45:34.000Z</time>
      </trkpt>
      <trkpt lat="46.02545" lon="4.56336">
        <ele>607.59997558594</ele>
        <time>2021-06-15T14:45:39.000Z</time>
      </trkpt>
      <trkpt lat="46.02544" lon="4.56333">
        <ele>607.79998779297</ele>
        <time>2021-06-15T14:45:40.000Z</time>
      </trkpt>
      <trkpt lat="46.02541" lon="4.56327">
        <ele>608.40002441406</ele>
        <time>2021-06-15T14:45:42.000Z</time>
      </trkpt>
      <trkpt lat="46.02535" lon="4.56317">
        <ele>609.40002441406</ele>
        <time>2021-06-15T14:45:46.000Z</time>
      </trkpt>
      <trkpt lat="46.02529" lon="4.56304">
        <ele>610.59997558594</ele>
        <time>2021-06-15T14:45:51.000Z</time>
      </trkpt>
      <trkpt lat="46.02525" lon="4.56297">
        <ele>611.40002441406</ele>
        <time>2021-06-15T14:45:54.000Z</time>
      </trkpt>
      <trkpt lat="46.02524" lon="4.56295">
        <ele>611.79998779297</ele>
        <time>2021-06-15T14:45:55.000Z</time>
      </trkpt>
      <trkpt lat="46.02517" lon="4.56285">
        <ele>613</ele>
        <time>2021-06-15T14:46:00.000Z</time>
      </trkpt>
    </trkseg>
  </trk>
</gpx>